Time;durP1;ratioP1;P1;durP2;ratioP2;P2;SDS_P1;SDS_P2;PMS_P1;PMS_P2;Temp;Humidity;BMP_temperature;BMP_pressure;BME280_temperature;BME280_humidity;BME280_pressure;Samples;Min_cycle;Max_cycle;Signal;HPM_P1;HPM_P2
2022/03/22 00:01:51;;;;;;;6.93;6.40;;;;;;;6.79;61.38;100005.59;4117758;28;20706;-84
2022/03/22 00:03:52;;;;;;;9.90;8.40;;;;;;;6.78;61.76;100005.78;4119831;28;20337;-86
2022/03/22 00:05:54;;;;;;;8.15;7.35;;;;;;;6.72;61.46;100009.25;4122909;28;20214;-85
2022/03/22 00:07:56;;;;;;;7.72;7.00;;;;;;;6.70;61.91;100008.59;4119908;28;20213;-85
2022/03/22 00:09:58;;;;;;;8.43;7.22;;;;;;;6.65;62.45;100011.03;4115715;28;20220;-85
2022/03/22 00:12:11;;;;;;;6.45;5.85;;;;;;;6.61;61.75;100017.88;4123356;28;20286;-84
2022/03/22 00:14:12;;;;;;;7.18;6.47;;;;;;;6.58;61.80;100010.09;4140938;28;20224;-84
2022/03/22 00:16:18;;;;;;;8.10;6.32;;;;;;;6.59;62.10;100017.22;4140319;28;20217;-84
2022/03/22 00:18:42;;;;;;;7.05;6.13;;;;;;;6.53;61.68;100012.53;4111243;28;20212;-85
2022/03/22 00:20:43;;;;;;;6.05;5.55;;;;;;;6.54;61.83;100014.22;4139449;28;20236;-85
2022/03/22 00:22:45;;;;;;;7.45;6.78;;;;;;;6.50;62.05;100018.38;4125019;28;20285;-86
2022/03/22 00:24:46;;;;;;;7.53;6.82;;;;;;;6.43;62.11;100017.44;4123043;28;20219;-84
2022/03/22 00:26:48;;;;;;;8.18;7.38;;;;;;;6.39;62.46;100014.25;4107366;28;20214;-84
2022/03/22 00:29:02;;;;;;;;;;;;;;;;;;;;;
2022/03/22 00:31:06;;;;;;;6.47;5.88;;;;;;;6.34;62.30;100007.66;4121063;28;20222;-84
2022/03/22 00:33:15;;;;;;;7.18;6.68;;;;;;;6.32;62.22;100020.59;4132618;28;20221;-83
2022/03/22 00:35:41;;;;;;;7.40;6.75;;;;;;;6.28;62.67;100020.13;4148318;28;20740;-83
2022/03/22 00:37:50;;;;;;;7.47;6.82;;;;;;;6.24;62.36;100018.81;4155936;28;20219;-84
2022/03/22 00:39:57;;;;;;;8.90;8.10;;;;;;;6.19;61.99;100014.97;4126057;28;20683;-84
2022/03/22 00:42:10;;;;;;;8.77;7.03;;;;;;;6.16;62.17;100012.63;4133504;28;20220;-84
2022/03/22 00:44:14;;;;;;;8.50;7.78;;;;;;;6.10;62.02;100010.66;4138073;28;20666;-86
2022/03/22 00:46:36;;;;;;;;;;;;;;;;;;;;;
2022/03/22 00:48:50;;;;;;;7.32;6.63;;;;;;;6.04;62.26;100005.94;4118693;28;20312;-84
2022/03/22 00:50:58;;;;;;;9.27;8.38;;;;;;;6.06;62.33;100009.31;4145358;28;20388;-86
2022/03/22 00:53:18;;;;;;;8.73;7.93;;;;;;;6.04;62.41;100011.38;4121412;28;20233;-84
2022/03/22 00:55:35;;;;;;;8.52;7.72;;;;;;;6.06;63.01;100009.31;4105972;28;20207;-85
2022/03/22 00:57:56;;;;;;;7.30;6.57;;;;;;;6.02;62.34;100002.59;4130610;28;20700;-86
2022/03/22 01:00:26;;;;;;;8.00;7.38;;;;;;;6.00;62.65;100010.06;4120254;28;20990;-85
2022/03/22 01:05:21;;;;;;;7.13;6.35;;;;;;;5.89;62.71;100002.38;4116099;28;20214;-84
2022/03/22 01:07:24;;;;;;;8.13;6.93;;;;;;;5.85;62.93;100003.75;4148879;28;20205;-84
2022/03/22 01:09:29;;;;;;;8.40;7.53;;;;;;;5.76;62.75;100002.94;4148359;28;21461;-84
2022/03/22 01:11:30;;;;;;;7.78;7.18;;;;;;;5.72;62.72;100011.66;4127805;28;20236;-83
2022/03/22 01:13:51;;;;;;;7.10;6.40;;;;;;;5.71;63.02;100020.81;4116016;28;20383;-84
2022/03/22 01:15:57;;;;;;;7.45;6.78;;;;;;;5.66;63.27;100012.38;4128791;28;20213;-84
2022/03/22 01:18:14;;;;;;;7.30;6.68;;;;;;;5.67;63.02;100014.06;4144947;28;20212;-86
2022/03/22 01:20:32;;;;;;;;;;;;;;;;;;;;;
2022/03/22 01:22:50;;;;;;;8.27;7.47;;;;;;;5.60;63.41;100013.09;4113966;28;20764;-87
2022/03/22 01:25:04;;;;;;;8.35;7.65;;;;;;;5.59;63.13;100005.97;4114445;28;20210;-83
2022/03/22 01:27:05;;;;;;;8.18;7.57;;;;;;;5.56;63.28;100015.31;4114917;28;20953;-84
2022/03/22 01:29:11;;;;;;;7.32;6.18;;;;;;;5.55;63.46;100010.09;4132812;28;20220;-86
2022/03/22 01:31:22;;;;;;;5.80;5.13;;;;;;;5.51;63.28;100011.47;4113358;28;20330;-84
2022/03/22 01:33:40;;;;;;;8.02;7.30;;;;;;;5.44;63.75;100003.19;4111089;28;20262;-86
2022/03/22 01:38:57;;;;;;;7.70;6.90;;;;;;;5.35;63.52;100004.31;4109687;28;20264;-86
2022/03/22 01:41:16;;;;;;;;;;;;;;;;;;;;;
2022/03/22 01:43:20;;;;;;;6.25;5.75;;;;;;;5.26;63.84;100004.53;4118080;28;20316;-84
2022/03/22 01:45:33;;;;;;;7.25;6.65;;;;;;;5.25;63.92;99997.41;4125440;28;20244;-84
2022/03/22 01:47:59;;;;;;;5.97;5.38;;;;;;;5.24;63.67;99996.56;4139356;28;20233;-84
2022/03/22 01:50:32;;;;;;;6.50;5.38;;;;;;;5.23;63.74;99996.75;4142129;28;20285;-86
2022/03/22 01:53:06;;;;;;;6.90;5.85;;;;;;;5.21;63.64;100001.50;4098445;28;20237;-85
2022/03/22 01:55:14;;;;;;;6.40;5.25;;;;;;;5.17;63.53;99989.34;4126668;28;20238;-85
2022/03/22 01:57:18;;;;;;;6.65;5.75;;;;;;;5.11;63.33;99998.19;4124077;28;20212;-84
2022/03/22 01:59:28;;;;;;;7.95;6.95;;;;;;;5.07;63.92;99999.56;4153689;28;20307;-84
2022/03/22 02:06:21;;;;;;;7.70;6.30;;;;;;;4.90;63.69;99989.84;4125355;28;20202;-84
2022/03/22 02:08:28;;;;;;;5.90;5.32;;;;;;;4.86;64.29;99993.94;4120221;28;20209;-84
2022/03/22 02:10:30;;;;;;;7.68;5.85;;;;;;;4.83;63.63;99986.16;4119923;28;21538;-85
2022/03/22 02:12:31;;;;;;;5.80;5.40;;;;;;;4.81;63.73;99981.94;4103074;28;20237;-84
2022/03/22 02:14:33;;;;;;;7.30;6.75;;;;;;;4.76;63.88;99989.75;4121398;28;20220;-85
2022/03/22 02:16:35;;;;;;;7.10;6.45;;;;;;;4.68;63.93;99982.50;4122177;28;20202;-84
2022/03/22 02:18:36;;;;;;;6.50;5.75;;;;;;;4.67;63.89;99975.38;4122827;28;20298;-84
2022/03/22 02:20:38;;;;;;;7.22;6.60;;;;;;;4.64;64.25;99974.88;4139782;28;20213;-86
2022/03/22 02:22:48;;;;;;;6.10;5.50;;;;;;;4.61;64.57;99976.09;4109728;28;20250;-84
2022/03/22 02:24:49;;;;;;;7.90;5.95;;;;;;;4.57;64.59;99976.63;4143604;28;20573;-85
2022/03/22 02:26:51;;;;;;;5.95;5.35;;;;;;;4.57;64.31;99974.78;4152795;28;21125;-84
2022/03/22 02:28:53;;;;;;;5.78;5.28;;;;;;;4.59;64.22;99971.88;4107070;28;20210;-84
2022/03/22 02:34:03;;;;;;;7.00;6.40;;;;;;;4.58;64.26;99968.31;4134055;28;20597;-85
2022/03/22 02:36:05;;;;;;;8.85;6.63;;;;;;;4.55;64.63;99971.41;4139173;28;20262;-83
2022/03/22 02:38:08;;;;;;;6.53;5.88;;;;;;;4.54;64.70;99971.56;4124370;28;20209;-85
2022/03/22 02:40:09;;;;;;;6.55;5.95;;;;;;;4.44;64.82;99979.03;4122406;28;20749;-86
2022/03/22 02:42:11;;;;;;;7.18;6.25;;;;;;;4.54;64.97;99974.28;4141399;28;20217;-84
2022/03/22 02:44:12;;;;;;;5.55;4.90;;;;;;;4.50;64.49;99979.22;4156073;28;20692;-85
2022/03/22 02:46:14;;;;;;;6.38;5.57;;;;;;;4.47;64.54;99971.41;4109434;28;20254;-87
2022/03/22 02:48:18;;;;;;;5.28;4.85;;;;;;;4.43;64.71;99969.22;4156148;28;20339;-85
2022/03/22 02:50:21;;;;;;;5.93;5.35;;;;;;;4.44;64.83;99976.34;4122341;28;20206;-85
2022/03/22 02:52:22;;;;;;;6.57;6.07;;;;;;;4.47;64.27;99970.59;4153261;28;22145;-86
2022/03/22 02:54:24;;;;;;;6.65;6.15;;;;;;;4.54;64.32;99969.69;4151997;28;20220;-85
2022/03/22 02:56:26;;;;;;;7.00;6.40;;;;;;;4.43;64.42;99971.94;4117677;28;20288;-85
2022/03/22 02:58:30;;;;;;;7.78;6.40;;;;;;;4.43;64.32;99980.06;4135426;28;20298;-85
2022/03/22 03:00:32;;;;;;;5.75;5.30;;;;;;;4.36;64.92;99977.22;4136802;28;20221;-86
2022/03/22 03:02:48;;;;;;;8.40;6.05;;;;;;;4.29;64.58;99981.66;4133922;28;20236;-84
2022/03/22 03:04:50;;;;;;;5.03;4.60;;;;;;;4.22;64.58;99982.53;4135458;28;20205;-85
2022/03/22 03:06:54;;;;;;;6.65;6.05;;;;;;;4.18;65.17;99990.16;4150392;28;20331;-86
2022/03/22 03:08:57;;;;;;;6.68;5.90;;;;;;;4.18;65.01;99984.72;4120436;28;20221;-84
2022/03/22 03:10:59;;;;;;;6.10;5.60;;;;;;;4.15;64.92;99993.19;4107126;28;20258;-85
2022/03/22 03:13:04;;;;;;;5.88;5.38;;;;;;;4.14;64.79;99991.50;4140356;28;20259;-86
2022/03/22 03:15:08;;;;;;;5.97;5.43;;;;;;;4.12;64.81;99987.28;4105559;28;20226;-85
2022/03/22 03:17:12;;;;;;;6.57;5.97;;;;;;;4.07;65.26;99990.50;4136963;28;20256;-85
2022/03/22 03:19:13;;;;;;;6.10;5.50;;;;;;;4.01;64.77;99985.78;4139375;28;20232;-85
2022/03/22 03:21:15;;;;;;;7.07;5.47;;;;;;;3.97;65.44;99989.88;4139770;28;20379;-83
2022/03/22 03:23:16;;;;;;;5.88;5.38;;;;;;;3.95;64.97;99989.16;4141801;28;20710;-84
2022/03/22 03:25:18;;;;;;;5.78;5.25;;;;;;;3.93;65.38;99993.91;4106293;28;20226;-84
2022/03/22 03:27:20;;;;;;;6.13;5.53;;;;;;;3.90;65.00;99985.31;4160110;28;20201;-84
2022/03/22 03:29:22;;;;;;;6.35;5.78;;;;;;;3.82;65.05;99988.03;4162478;28;20322;-84
2022/03/22 03:31:24;;;;;;;6.55;5.32;;;;;;;3.78;65.24;99992.94;4140773;28;20853;-85
2022/03/22 03:33:25;;;;;;;6.50;5.95;;;;;;;3.80;64.88;99990.91;4136008;28;20390;-84
2022/03/22 03:36:00;;;;;;;;;;;;;;;;;;;;;
2022/03/22 03:38:06;;;;;;;7.13;6.43;;;;;;;3.73;65.22;99989.06;4116230;28;20225;-86
2022/03/22 03:40:11;;;;;;;7.07;6.47;;;;;;;3.71;65.04;99988.38;4152794;28;20208;-86
2022/03/22 03:42:18;;;;;;;5.38;4.93;;;;;;;3.66;65.03;99994.28;4123087;28;20357;-84
2022/03/22 03:49:05;;;;;;;6.63;6.00;;;;;;;3.49;65.20;99991.78;4122946;28;20217;-85
2022/03/22 03:51:09;;;;;;;5.60;5.10;;;;;;;3.42;65.07;99994.31;4149069;28;20299;-85
2022/03/22 03:53:10;;;;;;;5.90;5.30;;;;;;;3.36;65.54;99992.28;4118831;28;20237;-86
2022/03/22 03:55:12;;;;;;;6.28;5.10;;;;;;;3.36;65.06;100003.09;4117699;28;20210;-86
2022/03/22 03:57:16;;;;;;;7.18;6.47;;;;;;;3.34;65.42;99999.69;4138741;28;20217;-84
2022/03/22 03:59:17;;;;;;;7.05;6.35;;;;;;;3.33;65.78;100003.44;4122670;28;20209;-85
2022/03/22 04:01:18;;;;;;;5.25;4.82;;;;;;;3.38;65.21;100003.78;4154961;28;20294;-84
2022/03/22 04:03:28;;;;;;;5.70;5.30;;;;;;;3.38;65.51;100006.47;4128336;28;20288;-85
2022/03/22 04:05:31;;;;;;;5.35;4.68;;;;;;;3.34;65.69;100004.28;4138405;28;20212;-84
2022/03/22 04:07:32;;;;;;;5.97;5.38;;;;;;;3.31;65.65;100008.16;4160468;28;20205;-84
2022/03/22 04:09:36;;;;;;;4.90;4.50;;;;;;;3.26;66.07;100007.81;4126454;28;20217;-84
2022/03/22 04:11:38;;;;;;;6.05;5.50;;;;;;;3.24;66.20;99999.03;4144752;28;20213;-83
2022/03/22 04:13:40;;;;;;;4.43;4.05;;;;;;;3.26;65.73;100013.22;4158071;28;20235;-83
2022/03/22 04:15:41;;;;;;;4.80;4.07;;;;;;;3.26;65.61;100013.22;4127817;28;20206;-84
2022/03/22 04:17:45;;;;;;;5.95;5.10;;;;;;;3.24;65.46;100015.25;4124434;28;20221;-84
2022/03/22 04:19:48;;;;;;;7.53;6.80;;;;;;;3.22;65.67;100017.28;4137689;28;20218;-85
2022/03/22 04:22:00;;;;;;;6.13;5.53;;;;;;;3.17;65.56;100014.25;4136082;28;20205;-85
2022/03/22 04:24:09;;;;;;;8.07;7.13;;;;;;;3.13;65.61;100007.47;4155192;28;20211;-86
2022/03/22 04:26:24;;;;;;;6.95;6.25;;;;;;;3.08;65.35;100003.56;4140633;28;20981;-85
2022/03/22 04:33:09;;;;;;;5.68;4.65;;;;;;;2.93;65.66;100008.75;4150149;28;20323;-84
2022/03/22 04:35:19;;;;;;;7.25;6.38;;;;;;;2.90;66.00;100013.66;4156334;28;20208;-84
2022/03/22 04:37:20;;;;;;;5.82;5.32;;;;;;;2.86;65.57;100005.03;4157075;28;21796;-85
2022/03/22 04:39:26;;;;;;;6.30;5.63;;;;;;;2.81;65.46;100012.78;4144288;28;20213;-84
2022/03/22 04:41:27;;;;;;;5.72;5.22;;;;;;;2.81;65.30;100018.19;4146096;28;20237;-84
2022/03/22 04:43:29;;;;;;;6.68;5.90;;;;;;;2.80;65.46;100016.50;4170318;28;20228;-86
2022/03/22 04:45:30;;;;;;;6.30;5.70;;;;;;;2.79;65.93;100012.13;4129939;28;20218;-85
2022/03/22 04:47:33;;;;;;;6.40;5.80;;;;;;;2.77;65.47;100022.25;4143423;28;20236;-84
2022/03/22 04:49:34;;;;;;;6.32;5.72;;;;;;;2.71;65.82;100019.34;4127238;28;20202;-85
2022/03/22 04:58:35;;;;;;;6.95;5.63;;;;;;;2.62;65.94;100015.75;4151518;28;20572;-85
2022/03/22 05:00:37;;;;;;;5.63;5.15;;;;;;;2.56;65.72;100019.13;4145001;28;20260;-84
2022/03/22 05:02:38;;;;;;;7.13;6.45;;;;;;;2.51;66.04;100026.88;4157162;28;20232;-85
2022/03/22 05:04:40;;;;;;;5.45;4.95;;;;;;;2.48;65.92;100019.06;4140550;28;20233;-84
2022/03/22 05:06:42;;;;;;;5.88;5.28;;;;;;;2.48;66.21;100023.66;4139796;28;20577;-86
2022/03/22 05:08:44;;;;;;;7.95;7.25;;;;;;;2.48;65.86;100023.66;4141111;28;20702;-85
2022/03/22 05:10:46;;;;;;;8.07;7.40;;;;;;;2.47;66.13;100020.09;4124598;28;20202;-86
2022/03/22 05:12:58;;;;;;;8.07;7.35;;;;;;;2.47;65.91;100024.66;4137812;28;20259;-85
2022/03/22 05:14:59;;;;;;;6.80;6.32;;;;;;;2.45;65.59;100021.25;4154394;28;20213;-85
2022/03/22 05:17:01;;;;;;;7.22;6.53;;;;;;;2.44;65.93;100025.84;4142440;28;20197;-86
2022/03/22 05:19:06;;;;;;;5.25;4.82;;;;;;;2.38;66.51;100025.63;4128907;28;20269;-85
2022/03/22 05:21:09;;;;;;;6.70;6.13;;;;;;;2.32;66.37;100029.81;4138982;28;20205;-84
2022/03/22 05:23:15;;;;;;;6.07;5.03;;;;;;;2.29;66.06;100022.06;4123035;28;20222;-85
2022/03/22 05:25:19;;;;;;;5.30;4.90;;;;;;;2.24;66.71;100029.78;4158008;28;20208;-86
2022/03/22 05:27:25;;;;;;;5.07;4.65;;;;;;;2.23;66.34;100027.22;4116257;28;20216;-85
2022/03/22 05:29:38;;;;;;;6.13;5.35;;;;;;;2.23;66.53;100028.09;4122543;28;20212;-84
2022/03/22 05:32:00;;;;;;;4.47;4.18;;;;;;;2.18;66.06;100030.41;4136349;28;20220;-84
2022/03/22 05:34:02;;;;;;;6.38;5.55;;;;;;;2.14;66.56;100034.44;4139372;28;20241;-86
2022/03/22 05:36:06;;;;;;;7.93;6.68;;;;;;;2.14;66.41;100033.59;4107006;28;20218;-85
2022/03/22 05:38:17;;;;;;;6.55;5.57;;;;;;;2.11;66.47;100028.50;4126944;28;20209;-86
2022/03/22 05:40:24;;;;;;;6.53;5.93;;;;;;;2.11;66.05;100034.75;4155637;28;20237;-86
2022/03/22 05:42:25;;;;;;;7.13;6.53;;;;;;;2.11;66.32;100037.47;4155816;28;20324;-87
2022/03/22 05:44:27;;;;;;;12.52;5.60;;;;;;;2.04;66.42;100039.09;4123245;28;20216;-85
2022/03/22 05:46:28;;;;;;;6.95;6.35;;;;;;;2.04;66.51;100039.09;4155374;28;20282;-85
2022/03/22 05:48:44;;;;;;;7.15;6.55;;;;;;;2.02;66.33;100046.50;4139916;28;20209;-85
2022/03/22 05:50:46;;;;;;;5.93;5.43;;;;;;;2.02;66.68;100040.28;4124120;28;20217;-86
2022/03/22 05:52:49;;;;;;;5.57;5.07;;;;;;;2.04;66.57;100044.50;4156009;28;20220;-85
2022/03/22 05:54:50;;;;;;;6.75;6.00;;;;;;;2.03;66.30;100041.97;4122324;28;20261;-85
2022/03/22 05:56:52;;;;;;;6.28;5.68;;;;;;;2.02;66.68;100046.50;4119983;28;20222;-85
2022/03/22 05:58:53;;;;;;;5.28;4.85;;;;;;;1.99;67.00;100043.25;4102023;28;20213;-85
2022/03/22 06:00:55;;;;;;;5.93;5.43;;;;;;;1.94;67.24;100038.34;4157005;28;20220;-84
2022/03/22 06:02:56;;;;;;;8.02;5.65;;;;;;;2.01;66.82;100038.56;4122328;28;20261;-85
2022/03/22 06:04:59;;;;;;;5.20;4.60;;;;;;;2.02;66.77;100046.50;4116137;28;20212;-85
2022/03/22 06:07:01;;;;;;;5.90;5.28;;;;;;;2.07;67.23;100044.19;4136951;28;20216;-85
2022/03/22 06:09:04;;;;;;;6.63;5.78;;;;;;;2.09;66.59;100050.28;4161060;28;20213;-85
2022/03/22 06:11:07;;;;;;;8.00;7.28;;;;;;;2.16;66.60;100045.94;4125708;28;20206;-84
2022/03/22 06:13:08;;;;;;;6.65;5.97;;;;;;;2.21;66.62;100045.44;4138387;28;20233;-84
2022/03/22 06:15:16;;;;;;;7.07;6.47;;;;;;;2.25;66.79;100042.25;4128333;28;20212;-84
2022/03/22 06:17:21;;;;;;;8.00;7.32;;;;;;;2.33;67.11;100042.31;4145913;28;20212;-84
2022/03/22 06:19:32;;;;;;;9.88;6.93;;;;;;;2.33;67.03;100039.59;4164561;28;20200;-85
2022/03/22 06:21:36;;;;;;;9.68;8.77;;;;;;;2.31;66.60;100047.03;4129824;28;20236;-83
2022/03/22 06:23:38;;;;;;;11.43;10.43;;;;;;;2.31;66.63;100049.72;4162806;28;20220;-86
2022/03/22 06:25:45;;;;;;;12.23;11.27;;;;;;;2.31;66.44;100044.34;4122470;28;20643;-85
2022/03/22 06:27:52;;;;;;;10.55;9.57;;;;;;;2.38;66.74;100047.22;4161360;28;20205;-84
2022/03/22 06:29:54;;;;;;;8.13;7.47;;;;;;;2.75;67.99;100056.69;4129551;28;20210;-84
2022/03/22 06:31:56;;;;;;;9.07;8.27;;;;;;;3.41;67.52;100038.59;4127232;28;20207;-83
2022/03/22 06:33:57;;;;;;;9.80;9.02;;;;;;;3.26;67.09;100051.09;4124716;28;20285;-85
2022/03/22 06:35:59;;;;;;;8.00;7.25;;;;;;;3.19;67.61;100050.06;4147002;28;20209;-83
2022/03/22 06:38:02;;;;;;;8.35;7.65;;;;;;;4.36;66.54;100053.09;4167731;28;20215;-86
2022/03/22 06:40:06;;;;;;;7.55;6.88;;;;;;;4.96;66.49;100051.53;4144337;28;20733;-84
2022/03/22 06:42:08;;;;;;;7.07;6.50;;;;;;;4.51;64.86;100051.34;4112168;28;20206;-84
2022/03/22 06:44:09;;;;;;;9.13;8.00;;;;;;;4.52;65.14;100053.03;4164194;28;20203;-85
2022/03/22 06:46:11;;;;;;;9.40;6.90;;;;;;;4.73;64.99;100053.31;4161076;28;20949;-84
2022/03/22 06:48:15;;;;;;;6.82;6.28;;;;;;;4.76;63.99;100052.97;4160287;28;20208;-85
2022/03/22 06:50:18;;;;;;;8.65;7.60;;;;;;;4.93;63.43;100057.28;4143624;28;20206;-85
2022/03/22 06:52:20;;;;;;;7.22;6.40;;;;;;;5.17;63.32;100055.28;4162553;28;20225;-83
2022/03/22 06:54:22;;;;;;;6.55;5.97;;;;;;;5.49;63.18;100059.69;4147867;28;20229;-84
2022/03/22 06:56:32;;;;;;;5.82;5.40;;;;;;;5.80;62.38;100057.78;4143069;28;20228;-84
2022/03/22 06:58:34;;;;;;;12.35;6.88;;;;;;;5.86;61.44;100067.91;4164910;28;20216;-86
2022/03/22 07:00:36;;;;;;;37.03;5.50;;;;;;;5.88;61.24;100065.88;4149043;28;20285;-85
2022/03/22 07:02:39;;;;;;;7.57;6.97;;;;;;;5.64;61.42;100068.75;4160383;28;20255;-86
2022/03/22 07:04:49;;;;;;;6.68;5.78;;;;;;;6.66;61.12;100070.69;4115787;28;20679;-85
2022/03/22 07:07:15;;;;;;;6.88;6.18;;;;;;;7.42;59.41;100070.25;4130070;28;20206;-84
2022/03/22 07:09:40;;;;;;;7.78;7.18;;;;;;;8.37;57.63;100073.31;4113045;28;20317;-84
2022/03/22 07:11:50;;;;;;;8.05;7.32;;;;;;;8.98;55.66;100071.59;4127764;28;20281;-85
2022/03/22 07:13:52;;;;;;;7.80;7.10;;;;;;;9.77;54.42;100062.66;4143543;28;20396;-86
2022/03/22 07:16:04;;;;;;;6.93;6.32;;;;;;;9.55;54.43;100074.81;4129842;28;20261;-86
2022/03/22 07:18:12;;;;;;;7.78;6.93;;;;;;;10.05;53.03;100066.09;4113586;28;20241;-85
2022/03/22 07:20:35;;;;;;;7.72;6.95;;;;;;;10.05;51.60;100071.56;4112262;28;20664;-85
2022/03/22 07:22:36;;;;;;;7.47;6.88;;;;;;;10.23;53.20;100074.53;4124264;28;20621;-86
2022/03/22 07:24:39;;;;;;;7.75;7.03;;;;;;;10.93;50.92;100068.16;4132646;28;20233;-86
2022/03/22 07:27:00;;;;;;;12.52;7.45;;;;;;;10.40;50.40;100068.44;4106973;28;20241;-84
2022/03/22 07:29:16;;;;;;;7.90;7.15;;;;;;;9.19;52.29;100074.22;4110021;28;20301;-86
2022/03/22 07:31:41;;;;;;;9.65;6.78;;;;;;;10.40;51.71;100070.31;4143614;28;20716;-84
2022/03/22 07:34:06;;;;;;;6.93;6.25;;;;;;;11.17;49.10;100064.69;4145060;28;20264;-85
2022/03/22 07:36:27;;;;;;;8.02;7.32;;;;;;;11.54;48.63;100076.78;4132411;28;20214;-85
2022/03/22 07:38:58;;;;;;;7.60;6.93;;;;;;;12.26;47.45;100063.47;4133678;28;20229;-85
2022/03/22 07:41:13;;;;;;;7.55;6.90;;;;;;;12.57;46.47;100074.41;4131861;28;20674;-87
2022/03/22 07:43:48;;;;;;;6.57;5.97;;;;;;;13.34;45.13;100072.78;4124980;28;20275;-85
2022/03/22 07:45:59;;;;;;;5.82;5.30;;;;;;;11.78;46.87;100074.13;4146608;28;20316;-84
2022/03/22 07:48:01;;;;;;;6.63;6.00;;;;;;;11.36;48.75;100068.41;4147652;28;20255;-84
2022/03/22 07:53:07;;;;;;;6.38;5.35;;;;;;;13.48;44.46;100067.94;4134132;28;20224;-84
2022/03/22 07:55:17;;;;;;;5.90;5.38;;;;;;;14.06;43.58;100067.16;4146574;28;20234;-85
2022/03/22 08:00:19;;;;;;;8.45;5.65;;;;;;;13.74;43.77;100071.22;4099372;28;20206;-83
2022/03/22 08:02:58;;;;;;;5.65;5.25;;;;;;;13.65;44.09;100069.88;4133549;28;20304;-82
2022/03/22 08:05:23;;;;;;;6.35;5.72;;;;;;;12.80;45.70;100074.63;4133549;28;20272;-85
2022/03/22 08:08:22;;;;;;;9.65;6.15;;;;;;;12.05;47.35;100075.66;4118948;28;20206;-84
2022/03/22 08:10:34;;;;;;;6.25;5.63;;;;;;;11.56;47.93;100069.19;4118130;28;20725;-84
2022/03/22 08:12:36;;;;;;;5.78;5.28;;;;;;;11.25;48.59;100072.66;4111273;28;20269;-84
2022/03/22 08:14:38;;;;;;;6.18;4.80;;;;;;;11.20;47.93;100066.16;4128551;28;20218;-84
2022/03/22 08:16:43;;;;;;;5.95;5.45;;;;;;;12.27;47.18;100063.25;4112267;28;20214;-83
2022/03/22 08:18:53;;;;;;;6.65;6.05;;;;;;;12.00;46.37;100071.91;4127519;28;20268;-83
2022/03/22 08:20:55;;;;;;;5.63;5.18;;;;;;;12.48;46.04;100071.13;4148933;28;20717;-83
2022/03/22 08:23:09;;;;;;;6.32;5.75;;;;;;;13.46;44.52;100070.94;4116823;28;20230;-84
2022/03/22 08:26:06;;;;;;;;;;;;;;;;;;;;;
2022/03/22 08:28:09;;;;;;;4.97;4.50;;;;;;;14.62;42.47;100080.47;4146736;28;20331;-82
2022/03/22 08:30:14;;;;;;;6.75;5.57;;;;;;;15.06;41.67;100066.09;4110572;28;20210;-84
2022/03/22 08:32:34;;;;;;;5.82;4.55;;;;;;;13.90;42.57;100064.22;4128790;28;20332;-83
2022/03/22 08:34:35;;;;;;;5.07;4.63;;;;;;;15.39;41.46;100063.56;4116829;28;20237;-83
2022/03/22 08:36:39;;;;;;;6.05;5.45;;;;;;;15.13;41.57;100064.03;4166138;28;20209;-84
2022/03/22 08:38:57;;;;;;;5.85;5.35;;;;;;;14.89;41.39;100063.22;4164829;28;20235;-82
2022/03/22 08:40:59;;;;;;;5.53;5.03;;;;;;;13.92;41.46;100054.66;4116723;28;20266;-81
2022/03/22 08:43:25;;;;;;;5.70;4.80;;;;;;;14.96;41.61;100063.94;4164861;28;20316;-82
2022/03/22 08:45:50;;;;;;;5.55;4.95;;;;;;;15.36;40.38;100059.34;4062502;29;20227;-84
2022/03/22 08:49:01;;;;;;;4.65;4.13;;;;;;;15.56;39.84;100065.31;4034063;29;20233;-85
2022/03/22 08:51:06;;;;;;;5.85;5.35;;;;;;;16.34;38.43;100068.19;4050918;29;20647;-83
2022/03/22 08:53:43;;;;;;;5.45;4.95;;;;;;;15.15;38.05;100068.25;4037547;29;20257;-84
2022/03/22 08:55:46;;;;;;;3.67;3.38;;;;;;;15.58;38.57;100065.06;4039393;29;20590;-82
2022/03/22 08:58:57;;;;;;;3.88;3.50;;;;;;;16.35;38.34;100062.44;4039151;29;20222;-84
2022/03/22 09:01:30;;;;;;;5.28;4.78;;;;;;;15.75;38.98;100058.53;4043871;29;20237;-83
2022/03/22 09:06:07;;;;;;;5.07;4.65;;;;;;;16.12;38.95;100061.72;4034036;29;20260;-81
2022/03/22 09:06:16;;;;;;;2.78;2.58;;;;;;;16.42;36.84;100065.09;4046959;29;20213;-82
2022/03/22 09:08:27;;;;;;;6.05;5.47;;;;;;;16.56;38.58;100055.38;4092669;28;20199;-85
2022/03/22 09:10:29;;;;;;;4.70;4.25;;;;;;;17.13;37.00;100064.00;4132308;28;20208;-82
2022/03/22 09:12:39;;;;;;;4.70;4.30;;;;;;;17.81;36.50;100060.81;4148550;28;20245;-84
2022/03/22 09:15:14;;;;;;;4.93;4.38;;;;;;;17.59;37.09;100054.44;4117040;28;20234;-83
2022/03/22 09:17:16;;;;;;;5.55;4.80;;;;;;;17.22;36.91;100053.34;4150186;28;21196;-84
2022/03/22 09:19:36;;;;;;;5.20;4.70;;;;;;;17.19;36.88;100056.66;4133172;28;20206;-81
2022/03/22 09:21:58;;;;;;;4.60;4.18;;;;;;;17.66;37.23;100052.31;4133227;28;20212;-81
2022/03/22 09:24:07;;;;;;;4.70;4.30;;;;;;;17.77;36.92;100048.56;4147000;28;20214;-81
2022/03/22 09:26:20;;;;;;;4.28;3.65;;;;;;;17.40;37.25;100044.78;4113274;28;20210;-83
2022/03/22 09:28:25;;;;;;;4.85;4.15;;;;;;;17.69;36.83;100051.78;4160502;28;20201;-81
2022/03/22 09:30:27;;;;;;;5.28;4.57;;;;;;;18.14;35.97;100038.44;4113944;28;20207;-82
2022/03/22 09:32:34;;;;;;;4.93;4.30;;;;;;;17.71;35.97;100055.16;4148149;28;20232;-82
2022/03/22 09:34:44;;;;;;;5.20;4.70;;;;;;;16.69;35.87;100044.81;4133109;28;20228;-82
2022/03/22 09:36:48;;;;;;;4.18;3.65;;;;;;;16.29;36.98;100041.31;4168277;28;20209;-82
2022/03/22 09:38:50;;;;;;;4.88;4.38;;;;;;;16.78;37.23;100051.59;4134013;28;20224;-82
2022/03/22 09:40:52;;;;;;;4.30;3.53;;;;;;;17.22;35.91;100042.28;4154936;28;20205;-82
2022/03/22 09:43:12;;;;;;;5.80;5.20;;;;;;;17.13;36.26;100046.59;4121358;28;20238;-81
2022/03/22 09:45:27;;;;;;;5.30;4.68;;;;;;;16.57;37.05;100049.56;4113175;28;20211;-81
2022/03/22 09:47:48;;;;;;;;;;;;;;;;;;;;;
2022/03/22 09:49:58;;;;;;;5.45;4.65;;;;;;;16.61;35.89;100048.00;4134809;28;20216;-83
2022/03/22 09:52:03;;;;;;;6.05;4.70;;;;;;;16.29;36.78;100046.84;4113320;28;20206;-84
2022/03/22 09:54:07;;;;;;;5.22;4.70;;;;;;;16.63;37.37;100050.50;4147944;28;20220;-83
2022/03/22 09:56:29;;;;;;;6.40;5.40;;;;;;;17.03;37.21;100043.66;4097668;28;20668;-82
2022/03/22 09:58:37;;;;;;;4.65;4.22;;;;;;;16.14;36.50;100035.53;4063626;29;20278;-83
2022/03/22 10:00:47;;;;;;;4.43;4.03;;;;;;;16.31;36.53;100041.94;4110203;28;20257;-82
2022/03/22 10:02:52;;;;;;;4.90;4.00;;;;;;;16.69;36.13;100042.03;4130350;28;20697;-82
2022/03/22 10:05:01;;;;;;;4.38;3.95;;;;;;;17.07;36.85;100047.59;4114892;28;20222;-82
2022/03/22 10:07:05;;;;;;;4.95;4.45;;;;;;;17.77;35.88;100035.56;4147488;28;20693;-82
2022/03/22 10:09:29;;;;;;;4.97;4.43;;;;;;;16.39;36.28;100038.78;4145630;28;20686;-82
2022/03/22 10:12:03;;;;;;;5.00;4.50;;;;;;;15.28;36.94;100023.84;4144311;28;20612;-82
2022/03/22 10:17:58;;;;;;;4.88;3.60;;;;;;;15.48;36.46;100024.31;4079987;28;20212;-84
2022/03/22 10:20:34;;;;;;;4.43;4.05;;;;;;;17.32;36.90;100023.06;4132367;28;20348;-83
2022/03/22 10:22:54;;;;;;;4.85;4.45;;;;;;;17.77;35.99;100023.63;4160975;28;20228;-83
2022/03/22 10:25:00;;;;;;;4.07;3.67;;;;;;;18.23;35.86;100023.00;4163440;28;20207;-82
2022/03/22 10:27:35;;;;;;;5.03;4.50;;;;;;;18.42;36.00;100019.63;4148450;28;20214;-83
2022/03/22 10:30:07;;;;;;;4.50;3.75;;;;;;;18.30;34.06;100016.19;4152102;28;20292;-83
2022/03/22 10:32:11;;;;;;;4.30;3.55;;;;;;;18.49;34.96;100019.41;4144259;23;20205;-49
2022/03/22 10:34:15;;;;;;;4.80;4.30;;;;;;;18.38;34.09;100012.13;4127134;28;20229;-49
2022/03/22 10:36:21;;;;;;;6.30;4.85;;;;;;;18.91;34.62;100006.41;4128662;28;20256;-48
2022/03/22 10:38:23;;;;;;;4.30;3.90;;;;;;;18.96;34.30;100010.06;4126837;28;20210;-50
2022/03/22 10:40:32;;;;;;;6.82;5.32;;;;;;;19.39;34.18;100008.94;4121695;28;20210;-49
2022/03/22 10:42:38;;;;;;;4.22;3.58;;;;;;;19.76;33.71;100009.63;4107001;28;20213;-50
2022/03/22 10:44:41;;;;;;;5.72;5.20;;;;;;;18.44;33.87;100009.09;4111186;28;20858;-49
2022/03/22 10:46:47;;;;;;;4.22;3.85;;;;;;;18.87;34.53;100005.28;4110672;28;20214;-49
2022/03/22 10:48:49;;;;;;;4.93;4.13;;;;;;;18.58;35.14;99999.22;4096966;28;20270;-49
2022/03/22 10:50:52;;;;;;;4.35;3.95;;;;;;;19.03;34.34;99998.69;4095996;28;20234;-49
2022/03/22 10:52:56;;;;;;;5.05;4.50;;;;;;;19.27;34.08;100000.84;4098327;28;20662;-49
2022/03/22 10:54:59;;;;;;;5.03;4.10;;;;;;;19.01;33.06;100003.69;4080823;29;20272;-49